sensor_id;sensor_type;location;lat;lon;timestamp;pressure;altitude;pressure_sealevel;temperature;humidity
51528;BME280;37612;51.768;21.590;2023-04-07T00:01:51;99791.99;;;3.37;100.00
51528;BME280;37612;51.768;21.590;2023-04-07T00:05:53;99790.44;;;3.40;100.00
51528;BME280;37612;51.768;21.590;2023-04-07T00:09:55;99784.22;;;3.41;100.00
51528;BME280;37612;51.768;21.590;2023-04-07T00:13:58;99783.67;;;3.44;100.00
51528;BME280;37612;51.768;21.590;2023-04-07T00:18:00;99780.66;;;3.48;100.00
51528;BME280;37612;51.768;21.590;2023-04-07T00:22:02;99778.14;;;3.48;100.00
51528;BME280;37612;51.768;21.590;2023-04-07T00:26:04;99779.64;;;3.50;100.00
51528;BME280;37612;51.768;21.590;2023-04-07T00:30:07;99782.38;;;3.54;100.00
51528;BME280;37612;51.768;21.590;2023-04-07T00:34:09;99781.20;;;3.56;100.00
51528;BME280;37612;51.768;21.590;2023-04-07T00:38:10;99778.02;;;3.58;100.00
51528;BME280;37612;51.768;21.590;2023-04-07T00:42:14;99776.63;;;3.61;100.00
51528;BME280;37612;51.768;21.590;2023-04-07T00:46:17;99776.95;;;3.63;100.00
51528;BME280;37612;51.768;21.590;2023-04-07T00:50:20;99778.77;;;3.64;100.00
51528;BME280;37612;51.768;21.590;2023-04-07T00:54:24;99776.55;;;3.68;100.00
51528;BME280;37612;51.768;21.590;2023-04-07T00:58:26;99771.05;;;3.72;100.00
51528;BME280;37612;51.768;21.590;2023-04-07T01:02:33;99769.94;;;3.73;100.00
51528;BME280;37612;51.768;21.590;2023-04-07T01:06:39;99770.14;;;3.74;100.00
51528;BME280;37612;51.768;21.590;2023-04-07T01:10:55;99762.85;;;3.79;100.00
51528;BME280;37612;51.768;21.590;2023-04-07T01:14:59;99764.50;;;3.83;100.00
51528;BME280;37612;51.768;21.590;2023-04-07T01:23:31;99757.83;;;3.90;100.00
51528;BME280;37612;51.768;21.590;2023-04-07T01:27:58;99757.73;;;3.94;100.00
51528;BME280;37612;51.768;21.590;2023-04-07T01:32:05;99754.16;;;3.97;100.00
51528;BME280;37612;51.768;21.590;2023-04-07T01:36:09;99755.79;;;3.99;100.00
51528;BME280;37612;51.768;21.590;2023-04-07T01:40:11;99755.19;;;4.03;100.00
51528;BME280;37612;51.768;21.590;2023-04-07T01:44:14;99755.40;;;4.07;100.00
51528;BME280;37612;51.768;21.590;2023-04-07T01:48:16;99753.33;;;4.08;100.00
51528;BME280;37612;51.768;21.590;2023-04-07T01:52:19;99753.59;;;4.11;100.00
51528;BME280;37612;51.768;21.590;2023-04-07T01:56:22;99747.80;;;4.16;100.00
51528;BME280;37612;51.768;21.590;2023-04-07T02:00:24;99746.42;;;4.18;100.00
51528;BME280;37612;51.768;21.590;2023-04-07T02:04:30;99749.84;;;4.18;100.00
51528;BME280;37612;51.768;21.590;2023-04-07T02:08:35;99743.63;;;4.22;100.00
51528;BME280;37612;51.768;21.590;2023-04-07T02:12:38;99743.89;;;4.26;100.00
51528;BME280;37612;51.768;21.590;2023-04-07T02:16:42;99741.38;;;4.31;100.00
51528;BME280;37612;51.768;21.590;2023-04-07T02:20:45;99742.27;;;4.32;100.00
51528;BME280;37612;51.768;21.590;2023-04-07T02:24:48;99741.44;;;4.33;100.00
51528;BME280;37612;51.768;21.590;2023-04-07T02:28:50;99739.25;;;4.37;100.00
51528;BME280;37612;51.768;21.590;2023-04-07T02:32:52;99746.50;;;4.41;100.00
51528;BME280;37612;51.768;21.590;2023-04-07T02:36:55;99742.70;;;4.44;100.00
51528;BME280;37612;51.768;21.590;2023-04-07T02:40:56;99740.21;;;4.47;100.00
51528;BME280;37612;51.768;21.590;2023-04-07T02:44:59;99741.00;;;4.52;100.00
51528;BME280;37612;51.768;21.590;2023-04-07T02:49:01;99743.61;;;4.54;100.00
51528;BME280;37612;51.768;21.590;2023-04-07T02:53:03;99739.62;;;4.55;100.00
51528;BME280;37612;51.768;21.590;2023-04-07T02:57:05;99738.09;;;4.59;100.00
51528;BME280;37612;51.768;21.590;2023-04-07T03:01:07;99740.56;;;4.64;100.00
51528;BME280;37612;51.768;21.590;2023-04-07T03:05:09;99742.05;;;4.66;100.00
51528;BME280;37612;51.768;21.590;2023-04-07T03:09:11;99743.23;;;4.66;100.00
51528;BME280;37612;51.768;21.590;2023-04-07T03:13:13;99739.65;;;4.70;100.00
51528;BME280;37612;51.768;21.590;2023-04-07T03:17:17;99740.92;;;4.74;100.00
51528;BME280;37612;51.768;21.590;2023-04-07T03:21:18;99741.27;;;4.76;100.00
51528;BME280;37612;51.768;21.590;2023-04-07T03:25:20;99743.30;;;4.75;100.00
51528;BME280;37612;51.768;21.590;2023-04-07T03:29:22;99741.65;;;4.78;100.00
51528;BME280;37612;51.768;21.590;2023-04-07T03:33:24;99740.83;;;4.83;100.00
51528;BME280;37612;51.768;21.590;2023-04-07T03:37:27;99742.08;;;4.88;100.00
51528;BME280;37612;51.768;21.590;2023-04-07T03:41:29;99741.42;;;4.89;100.00
51528;BME280;37612;51.768;21.590;2023-04-07T03:45:32;99741.85;;;4.91;100.00
51528;BME280;37612;51.768;21.590;2023-04-07T03:49:34;99742.70;;;4.94;100.00
51528;BME280;37612;51.768;21.590;2023-04-07T03:53:38;99741.02;;;5.00;100.00
51528;BME280;37612;51.768;21.590;2023-04-07T03:57:40;99743.60;;;5.03;100.00
51528;BME280;37612;51.768;21.590;2023-04-07T04:01:42;99742.60;;;5.04;100.00
51528;BME280;37612;51.768;21.590;2023-04-07T04:05:44;99741.94;;;5.09;100.00
51528;BME280;37612;51.768;21.590;2023-04-07T04:09:46;99745.51;;;5.15;100.00
51528;BME280;37612;51.768;21.590;2023-04-07T04:13:48;99746.80;;;5.19;100.00
51528;BME280;37612;51.768;21.590;2023-04-07T04:17:49;99748.30;;;5.19;100.00
51528;BME280;37612;51.768;21.590;2023-04-07T04:21:51;99750.04;;;5.23;100.00
51528;BME280;37612;51.768;21.590;2023-04-07T04:25:53;99751.86;;;5.28;100.00
51528;BME280;37612;51.768;21.590;2023-04-07T04:29:55;99751.27;;;5.31;100.00
51528;BME280;37612;51.768;21.590;2023-04-07T04:33:57;99749.64;;;5.33;100.00
51528;BME280;37612;51.768;21.590;2023-04-07T04:37:59;99752.73;;;5.36;100.00
51528;BME280;37612;51.768;21.590;2023-04-07T04:42:01;99751.74;;;5.41;100.00
51528;BME280;37612;51.768;21.590;2023-04-07T04:46:04;99750.77;;;5.48;100.00
51528;BME280;37612;51.768;21.590;2023-04-07T04:50:06;99755.15;;;5.53;100.00
51528;BME280;37612;51.768;21.590;2023-04-07T04:54:08;99752.22;;;5.56;100.00
51528;BME280;37612;51.768;21.590;2023-04-07T04:58:10;99752.94;;;5.59;100.00
51528;BME280;37612;51.768;21.590;2023-04-07T05:02:12;99754.42;;;5.67;100.00
51528;BME280;37612;51.768;21.590;2023-04-07T05:06:13;99752.76;;;5.73;100.00
51528;BME280;37612;51.768;21.590;2023-04-07T05:10:18;99755.67;;;5.78;100.00
51528;BME280;37612;51.768;21.590;2023-04-07T05:14:20;99754.48;;;5.85;100.00
51528;BME280;37612;51.768;21.590;2023-04-07T05:18:23;99751.93;;;5.91;100.00
51528;BME280;37612;51.768;21.590;2023-04-07T05:22:25;99751.04;;;5.97;100.00
51528;BME280;37612;51.768;21.590;2023-04-07T05:26:26;99750.30;;;5.99;100.00
51528;BME280;37612;51.768;21.590;2023-04-07T05:30:28;99750.98;;;6.05;100.00
51528;BME280;37612;51.768;21.590;2023-04-07T05:34:30;99754.98;;;6.12;100.00
51528;BME280;37612;51.768;21.590;2023-04-07T05:38:32;99753.45;;;6.19;100.00
51528;BME280;37612;51.768;21.590;2023-04-07T05:42:34;99753.52;;;6.22;100.00
51528;BME280;37612;51.768;21.590;2023-04-07T05:46:36;99755.77;;;6.27;100.00
51528;BME280;37612;51.768;21.590;2023-04-07T05:50:37;99755.31;;;6.32;100.00
51528;BME280;37612;51.768;21.590;2023-04-07T05:54:39;99758.73;;;6.40;100.00
51528;BME280;37612;51.768;21.590;2023-04-07T05:58:41;99754.11;;;6.46;100.00
51528;BME280;37612;51.768;21.590;2023-04-07T06:02:43;99753.95;;;6.49;100.00
51528;BME280;37612;51.768;21.590;2023-04-07T06:06:45;99756.03;;;6.51;100.00
51528;BME280;37612;51.768;21.590;2023-04-07T06:10:47;99753.91;;;6.56;100.00
51528;BME280;37612;51.768;21.590;2023-04-07T06:14:55;99756.20;;;6.61;100.00
51528;BME280;37612;51.768;21.590;2023-04-07T06:19:02;99754.93;;;6.66;100.00
51528;BME280;37612;51.768;21.590;2023-04-07T06:27:07;99756.05;;;6.83;100.00
51528;BME280;37612;51.768;21.590;2023-04-07T06:31:10;99758.55;;;6.90;100.00
51528;BME280;37612;51.768;21.590;2023-04-07T06:35:13;99757.86;;;6.94;100.00
51528;BME280;37612;51.768;21.590;2023-04-07T06:39:15;99760.45;;;6.99;100.00
51528;BME280;37612;51.768;21.590;2023-04-07T06:43:16;99760.59;;;7.03;100.00
51528;BME280;37612;51.768;21.590;2023-04-07T06:47:19;99760.36;;;7.04;100.00
51528;BME280;37612;51.768;21.590;2023-04-07T06:51:21;99764.23;;;7.05;100.00
51528;BME280;37612;51.768;21.590;2023-04-07T06:55:23;99761.77;;;7.06;100.00
51528;BME280;37612;51.768;21.590;2023-04-07T06:59:25;99765.71;;;7.09;100.00
51528;BME280;37612;51.768;21.590;2023-04-07T07:03:27;99763.14;;;7.13;100.00
51528;BME280;37612;51.768;21.590;2023-04-07T07:07:30;99758.92;;;7.20;100.00
51528;BME280;37612;51.768;21.590;2023-04-07T07:11:31;99757.02;;;7.30;100.00
51528;BME280;37612;51.768;21.590;2023-04-07T07:15:33;99763.70;;;7.43;100.00
51528;BME280;37612;51.768;21.590;2023-04-07T07:19:35;99759.83;;;7.54;100.00
51528;BME280;37612;51.768;21.590;2023-04-07T07:23:37;99761.80;;;7.68;100.00
51528;BME280;37612;51.768;21.590;2023-04-07T07:27:39;99762.25;;;7.81;100.00
51528;BME280;37612;51.768;21.590;2023-04-07T07:31:41;99765.64;;;7.95;100.00
51528;BME280;37612;51.768;21.590;2023-04-07T07:35:43;99765.43;;;8.07;100.00
51528;BME280;37612;51.768;21.590;2023-04-07T07:39:45;99771.82;;;8.14;100.00
51528;BME280;37612;51.768;21.590;2023-04-07T07:43:47;99768.77;;;8.19;100.00
51528;BME280;37612;51.768;21.590;2023-04-07T07:47:49;99769.55;;;8.31;100.00
51528;BME280;37612;51.768;21.590;2023-04-07T07:51:51;99767.34;;;8.47;100.00
51528;BME280;37612;51.768;21.590;2023-04-07T07:55:53;99766.81;;;8.61;100.00
51528;BME280;37612;51.768;21.590;2023-04-07T07:59:56;99769.42;;;8.79;100.00
51528;BME280;37612;51.768;21.590;2023-04-07T08:03:58;99773.69;;;8.91;100.00
51528;BME280;37612;51.768;21.590;2023-04-07T08:08:00;99774.31;;;8.97;100.00
51528;BME280;37612;51.768;21.590;2023-04-07T08:12:03;99770.94;;;9.11;100.00
51528;BME280;37612;51.768;21.590;2023-04-07T08:16:05;99772.39;;;9.17;100.00
51528;BME280;37612;51.768;21.590;2023-04-07T08:20:08;99774.20;;;9.25;100.00
51528;BME280;37612;51.768;21.590;2023-04-07T08:24:11;99771.44;;;9.30;100.00
51528;BME280;37612;51.768;21.590;2023-04-07T08:28:13;99772.56;;;9.43;100.00
51528;BME280;37612;51.768;21.590;2023-04-07T08:32:15;99775.21;;;9.56;100.00
51528;BME280;37612;51.768;21.590;2023-04-07T08:36:17;99775.41;;;9.68;100.00
51528;BME280;37612;51.768;21.590;2023-04-07T08:40:19;99783.09;;;9.70;100.00
51528;BME280;37612;51.768;21.590;2023-04-07T08:44:21;99781.19;;;9.74;100.00
51528;BME280;37612;51.768;21.590;2023-04-07T08:48:24;99779.63;;;9.79;100.00
51528;BME280;37612;51.768;21.590;2023-04-07T08:52:43;99779.23;;;9.86;100.00
51528;BME280;37612;51.768;21.590;2023-04-07T08:56:45;99775.21;;;9.84;100.00
51528;BME280;37612;51.768;21.590;2023-04-07T09:00:47;99780.20;;;9.78;100.00
51528;BME280;37612;51.768;21.590;2023-04-07T09:04:53;99778.94;;;9.70;100.00
51528;BME280;37612;51.768;21.590;2023-04-07T09:09:01;99784.90;;;9.68;100.00
51528;BME280;37612;51.768;21.590;2023-04-07T09:13:03;99786.30;;;9.69;100.00
51528;BME280;37612;51.768;21.590;2023-04-07T09:17:05;99786.64;;;9.71;100.00
51528;BME280;37612;51.768;21.590;2023-04-07T09:21:07;99789.43;;;9.73;100.00
51528;BME280;37612;51.768;21.590;2023-04-07T09:25:14;99785.55;;;9.79;100.00
51528;BME280;37612;51.768;21.590;2023-04-07T09:29:20;99780.15;;;9.83;100.00
51528;BME280;37612;51.768;21.590;2023-04-07T09:33:26;99779.39;;;9.92;100.00
51528;BME280;37612;51.768;21.590;2023-04-07T09:37:28;99780.96;;;10.05;100.00
51528;BME280;37612;51.768;21.590;2023-04-07T09:41:30;99783.98;;;10.13;100.00
51528;BME280;37612;51.768;21.590;2023-04-07T09:45:32;99783.55;;;10.14;100.00
51528;BME280;37612;51.768;21.590;2023-04-07T09:49:56;99789.05;;;10.16;100.00
51528;BME280;37612;51.768;21.590;2023-04-07T09:53:59;99788.14;;;10.20;100.00
51528;BME280;37612;51.768;21.590;2023-04-07T09:58:03;99791.16;;;10.21;100.00
51528;BME280;37612;51.768;21.590;2023-04-07T10:02:07;99792.95;;;10.20;100.00
51528;BME280;37612;51.768;21.590;2023-04-07T10:06:09;99796.34;;;10.13;100.00
51528;BME280;37612;51.768;21.590;2023-04-07T10:10:12;99795.10;;;10.05;100.00
51528;BME280;37612;51.768;21.590;2023-04-07T10:14:14;99798.83;;;10.04;100.00
51528;BME280;37612;51.768;21.590;2023-04-07T10:18:19;99799.12;;;10.07;100.00
51528;BME280;37612;51.768;21.590;2023-04-07T10:22:22;99800.38;;;10.05;100.00
51528;BME280;37612;51.768;21.590;2023-04-07T10:26:31;99802.86;;;10.04;100.00
51528;BME280;37612;51.768;21.590;2023-04-07T10:30:40;99798.84;;;10.05;100.00
51528;BME280;37612;51.768;21.590;2023-04-07T10:43:09;99808.92;;;10.00;100.00
51528;BME280;37612;51.768;21.590;2023-04-07T10:47:12;99814.66;;;9.93;100.00
51528;BME280;37612;51.768;21.590;2023-04-07T10:51:15;99818.78;;;9.90;100.00
51528;BME280;37612;51.768;21.590;2023-04-07T10:55:43;99824.36;;;9.88;100.00
51528;BME280;37612;51.768;21.590;2023-04-07T11:04:13;99843.81;;;9.56;100.00
51528;BME280;37612;51.768;21.590;2023-04-07T11:08:32;99851.67;;;9.42;100.00
51528;BME280;37612;51.768;21.590;2023-04-07T11:12:36;99858.95;;;9.30;100.00
51528;BME280;37612;51.768;21.590;2023-04-07T11:16:43;99864.44;;;9.24;100.00
51528;BME280;37612;51.768;21.590;2023-04-07T11:20:54;99872.12;;;9.18;100.00
51528;BME280;37612;51.768;21.590;2023-04-07T11:24:58;99876.42;;;9.11;100.00
51528;BME280;37612;51.768;21.590;2023-04-07T11:29:00;99882.52;;;9.07;100.00
51528;BME280;37612;51.768;21.590;2023-04-07T11:33:02;99886.42;;;9.02;100.00
51528;BME280;37612;51.768;21.590;2023-04-07T11:37:21;99886.19;;;9.00;100.00
51528;BME280;37612;51.768;21.590;2023-04-07T11:41:25;99888.02;;;9.02;100.00
51528;BME280;37612;51.768;21.590;2023-04-07T11:45:28;99891.08;;;9.18;100.00
51528;BME280;37612;51.768;21.590;2023-04-07T11:49:30;99894.67;;;9.42;100.00
51528;BME280;37612;51.768;21.590;2023-04-07T11:53:34;99897.36;;;9.67;100.00
51528;BME280;37612;51.768;21.590;2023-04-07T11:57:38;99897.85;;;9.84;100.00
51528;BME280;37612;51.768;21.590;2023-04-07T12:01:41;99897.44;;;9.98;100.00
51528;BME280;37612;51.768;21.590;2023-04-07T12:05:44;99900.77;;;10.15;100.00
51528;BME280;37612;51.768;21.590;2023-04-07T12:09:46;99895.79;;;10.14;100.00
51528;BME280;37612;51.768;21.590;2023-04-07T12:13:48;99900.11;;;9.94;100.00
51528;BME280;37612;51.768;21.590;2023-04-07T12:17:50;99903.76;;;9.83;100.00
51528;BME280;37612;51.768;21.590;2023-04-07T12:29:55;99926.28;;;9.28;100.00
51528;BME280;37612;51.768;21.590;2023-04-07T12:33:57;99934.71;;;9.01;100.00
51528;BME280;37612;51.768;21.590;2023-04-07T12:37:59;99937.66;;;8.84;100.00
51528;BME280;37612;51.768;21.590;2023-04-07T12:42:01;99945.41;;;8.61;100.00
51528;BME280;37612;51.768;21.590;2023-04-07T12:46:03;99951.04;;;8.49;100.00
51528;BME280;37612;51.768;21.590;2023-04-07T12:50:05;99958.04;;;8.35;100.00
51528;BME280;37612;51.768;21.590;2023-04-07T12:54:07;99967.95;;;8.17;100.00
51528;BME280;37612;51.768;21.590;2023-04-07T12:58:09;99978.48;;;7.95;100.00
51528;BME280;37612;51.768;21.590;2023-04-07T13:02:11;99980.51;;;7.80;100.00
51528;BME280;37612;51.768;21.590;2023-04-07T13:06:14;99988.35;;;7.74;100.00
51528;BME280;37612;51.768;21.590;2023-04-07T13:10:16;99988.90;;;7.80;100.00
51528;BME280;37612;51.768;21.590;2023-04-07T13:14:38;99991.70;;;7.83;100.00
51528;BME280;37612;51.768;21.590;2023-04-07T13:18:44;99992.33;;;7.89;100.00
51528;BME280;37612;51.768;21.590;2023-04-07T13:22:46;99994.88;;;7.99;100.00
51528;BME280;37612;51.768;21.590;2023-04-07T13:26:50;100000.70;;;8.09;100.00
51528;BME280;37612;51.768;21.590;2023-04-07T13:30:53;100003.83;;;8.17;100.00
51528;BME280;37612;51.768;21.590;2023-04-07T13:34:55;100000.89;;;8.18;100.00
51528;BME280;37612;51.768;21.590;2023-04-07T13:38:57;100004.27;;;8.22;100.00
51528;BME280;37612;51.768;21.590;2023-04-07T13:43:11;100002.39;;;8.37;100.00
51528;BME280;37612;51.768;21.590;2023-04-07T13:51:23;100002.81;;;8.63;100.00
51528;BME280;37612;51.768;21.590;2023-04-07T13:55:25;100004.11;;;8.67;100.00
51528;BME280;37612;51.768;21.590;2023-04-07T13:59:28;100002.35;;;8.67;100.00
51528;BME280;37612;51.768;21.590;2023-04-07T14:03:30;100008.75;;;8.61;100.00
51528;BME280;37612;51.768;21.590;2023-04-07T14:07:32;100008.09;;;8.57;100.00
51528;BME280;37612;51.768;21.590;2023-04-07T14:11:36;100006.92;;;8.60;100.00
51528;BME280;37612;51.768;21.590;2023-04-07T14:15:59;100008.11;;;8.68;100.00
51528;BME280;37612;51.768;21.590;2023-04-07T14:21:20;100008.33;;;8.76;100.00
51528;BME280;37612;51.768;21.590;2023-04-07T14:25:50;100012.73;;;8.90;100.00
51528;BME280;37612;51.768;21.590;2023-04-07T14:29:52;100018.11;;;9.01;100.00
51528;BME280;37612;51.768;21.590;2023-04-07T14:33:56;100017.98;;;9.06;100.00
51528;BME280;37612;51.768;21.590;2023-04-07T14:37:58;100019.54;;;9.07;100.00
51528;BME280;37612;51.768;21.590;2023-04-07T14:42:01;100020.64;;;9.03;100.00
51528;BME280;37612;51.768;21.590;2023-04-07T14:46:03;100025.89;;;8.96;100.00
51528;BME280;37612;51.768;21.590;2023-04-07T14:50:06;100023.82;;;8.88;100.00
51528;BME280;37612;51.768;21.590;2023-04-07T14:54:09;100026.33;;;8.79;100.00
51528;BME280;37612;51.768;21.590;2023-04-07T14:58:11;100033.32;;;8.74;100.00
51528;BME280;37612;51.768;21.590;2023-04-07T15:02:13;100038.37;;;8.66;100.00
51528;BME280;37612;51.768;21.590;2023-04-07T15:06:15;100041.30;;;8.55;100.00
51528;BME280;37612;51.768;21.590;2023-04-07T15:10:19;100048.48;;;8.50;100.00
51528;BME280;37612;51.768;21.590;2023-04-07T15:14:22;100042.10;;;10.17;100.00
51528;BME280;37612;51.768;21.590;2023-04-07T15:18:23;100038.25;;;12.80;98.64
51528;BME280;37612;51.768;21.590;2023-04-07T15:22:25;100031.63;;;15.19;94.46
51528;BME280;37612;51.768;21.590;2023-04-07T15:26:28;100036.21;;;15.51;92.94
51528;BME280;37612;51.768;21.590;2023-04-07T15:30:29;100047.33;;;14.16;95.86
51528;BME280;37612;51.768;21.590;2023-04-07T15:34:33;100048.77;;;12.89;96.61
51528;BME280;37612;51.768;21.590;2023-04-07T15:38:37;100058.63;;;11.75;99.10
51528;BME280;37612;51.768;21.590;2023-04-07T15:42:42;100068.70;;;10.58;98.17
51528;BME280;37612;51.768;21.590;2023-04-07T15:46:47;100076.52;;;9.84;98.76
51528;BME280;37612;51.768;21.590;2023-04-07T15:50:52;100088.77;;;9.28;98.54
51528;BME280;37612;51.768;21.590;2023-04-07T15:54:55;100091.53;;;8.76;98.67
51528;BME280;37612;51.768;21.590;2023-04-07T15:58:58;100092.08;;;8.37;99.00
51528;BME280;37612;51.768;21.590;2023-04-07T16:03:01;100091.55;;;8.07;100.00
51528;BME280;37612;51.768;21.590;2023-04-07T16:11:28;100101.54;;;7.78;99.88
51528;BME280;37612;51.768;21.590;2023-04-07T16:15:38;100101.41;;;7.64;99.99
51528;BME280;37612;51.768;21.590;2023-04-07T16:19:40;100110.50;;;7.55;99.92
51528;BME280;37612;51.768;21.590;2023-04-07T16:23:42;100116.60;;;7.49;100.00
51528;BME280;37612;51.768;21.590;2023-04-07T16:27:45;100122.41;;;7.43;99.97
51528;BME280;37612;51.768;21.590;2023-04-07T16:31:52;100128.52;;;7.37;99.91
51528;BME280;37612;51.768;21.590;2023-04-07T16:35:55;100138.80;;;7.28;100.00
51528;BME280;37612;51.768;21.590;2023-04-07T16:40:15;100145.25;;;7.25;99.91
51528;BME280;37612;51.768;21.590;2023-04-07T16:44:17;100150.86;;;7.14;100.00
51528;BME280;37612;51.768;21.590;2023-04-07T16:48:40;100159.30;;;7.01;99.99
51528;BME280;37612;51.768;21.590;2023-04-07T17:02:12;100187.67;;;6.73;100.00
51528;BME280;37612;51.768;21.590;2023-04-07T17:06:16;100190.65;;;6.66;100.00
51528;BME280;37612;51.768;21.590;2023-04-07T17:23:44;100215.27;;;6.43;100.00
51528;BME280;37612;51.768;21.590;2023-04-07T17:27:52;100219.91;;;6.39;100.00
51528;BME280;37612;51.768;21.590;2023-04-07T17:45:58;100251.20;;;6.34;100.00
51528;BME280;37612;51.768;21.590;2023-04-07T17:50:00;100259.59;;;6.32;100.00
51528;BME280;37612;51.768;21.590;2023-04-07T17:54:02;100264.17;;;6.30;100.00
51528;BME280;37612;51.768;21.590;2023-04-07T17:58:05;100273.73;;;6.26;100.00
51528;BME280;37612;51.768;21.590;2023-04-07T18:02:08;100280.21;;;6.21;100.00
51528;BME280;37612;51.768;21.590;2023-04-07T18:06:15;100289.25;;;6.17;100.00
51528;BME280;37612;51.768;21.590;2023-04-07T18:10:21;100294.55;;;6.12;100.00
51528;BME280;37612;51.768;21.590;2023-04-07T18:14:23;100303.01;;;6.10;100.00
51528;BME280;37612;51.768;21.590;2023-04-07T18:18:29;100312.40;;;6.08;100.00
51528;BME280;37612;51.768;21.590;2023-04-07T18:22:31;100323.06;;;6.03;100.00
51528;BME280;37612;51.768;21.590;2023-04-07T18:26:35;100324.37;;;5.96;100.00
51528;BME280;37612;51.768;21.590;2023-04-07T18:30:37;100335.46;;;5.94;100.00
51528;BME280;37612;51.768;21.590;2023-04-07T18:34:39;100342.66;;;5.92;100.00
51528;BME280;37612;51.768;21.590;2023-04-07T18:38:42;100344.06;;;5.87;100.00
51528;BME280;37612;51.768;21.590;2023-04-07T18:42:44;100354.54;;;5.79;100.00
51528;BME280;37612;51.768;21.590;2023-04-07T18:46:46;100357.52;;;5.74;100.00
51528;BME280;37612;51.768;21.590;2023-04-07T18:50:53;100364.88;;;5.70;100.00
51528;BME280;37612;51.768;21.590;2023-04-07T18:54:58;100370.80;;;5.63;100.00
51528;BME280;37612;51.768;21.590;2023-04-07T18:59:08;100377.38;;;5.59;100.00
51528;BME280;37612;51.768;21.590;2023-04-07T19:03:11;100381.14;;;5.55;100.00
51528;BME280;37612;51.768;21.590;2023-04-07T19:07:15;100384.45;;;5.49;100.00
51528;BME280;37612;51.768;21.590;2023-04-07T19:11:18;100386.09;;;5.46;100.00
51528;BME280;37612;51.768;21.590;2023-04-07T19:15:23;100387.89;;;5.40;100.00
51528;BME280;37612;51.768;21.590;2023-04-07T19:19:26;100389.70;;;5.32;100.00
51528;BME280;37612;51.768;21.590;2023-04-07T19:23:29;100390.16;;;5.23;99.98
51528;BME280;37612;51.768;21.590;2023-04-07T19:27:32;100390.17;;;5.10;99.84
51528;BME280;37612;51.768;21.590;2023-04-07T19:31:38;100397.34;;;4.91;99.91
51528;BME280;37612;51.768;21.590;2023-04-07T19:35:47;100405.18;;;4.73;99.82
51528;BME280;37612;51.768;21.590;2023-04-07T19:39:50;100409.35;;;4.63;99.74
51528;BME280;37612;51.768;21.590;2023-04-07T19:43:52;100413.33;;;4.55;99.90
51528;BME280;37612;51.768;21.590;2023-04-07T19:47:54;100416.09;;;4.51;99.99
51528;BME280;37612;51.768;21.590;2023-04-07T19:51:59;100420.29;;;4.53;99.97
51528;BME280;37612;51.768;21.590;2023-04-07T19:56:01;100427.09;;;4.56;99.92
51528;BME280;37612;51.768;21.590;2023-04-07T20:00:07;100433.84;;;4.60;99.85
51528;BME280;37612;51.768;21.590;2023-04-07T20:04:16;100435.92;;;4.66;99.99
51528;BME280;37612;51.768;21.590;2023-04-07T20:08:19;100439.67;;;4.70;99.84
51528;BME280;37612;51.768;21.590;2023-04-07T20:12:22;100447.69;;;4.71;99.74
51528;BME280;37612;51.768;21.590;2023-04-07T20:16:29;100454.60;;;4.71;99.83
51528;BME280;37612;51.768;21.590;2023-04-07T20:21:02;100459.55;;;4.72;99.18
51528;BME280;37612;51.768;21.590;2023-04-07T20:25:15;100461.54;;;4.73;99.38
51528;BME280;37612;51.768;21.590;2023-04-07T20:29:18;100463.31;;;4.73;99.16
51528;BME280;37612;51.768;21.590;2023-04-07T20:33:25;100470.16;;;4.73;98.86
51528;BME280;37612;51.768;21.590;2023-04-07T20:37:27;100471.27;;;4.78;98.74
51528;BME280;37612;51.768;21.590;2023-04-07T20:41:39;100478.19;;;4.78;98.78
51528;BME280;37612;51.768;21.590;2023-04-07T20:45:45;100477.93;;;4.76;98.75
51528;BME280;37612;51.768;21.590;2023-04-07T20:49:47;100475.02;;;4.76;98.37
51528;BME280;37612;51.768;21.590;2023-04-07T20:53:55;100472.70;;;4.77;98.13
51528;BME280;37612;51.768;21.590;2023-04-07T20:57:57;100480.48;;;4.70;98.00
51528;BME280;37612;51.768;21.590;2023-04-07T21:02:02;100482.51;;;4.68;98.19
51528;BME280;37612;51.768;21.590;2023-04-07T21:06:40;100484.55;;;4.68;97.83
51528;BME280;37612;51.768;21.590;2023-04-07T21:10:46;100489.77;;;4.68;97.77
51528;BME280;37612;51.768;21.590;2023-04-07T21:14:49;100493.45;;;4.68;97.52
51528;BME280;37612;51.768;21.590;2023-04-07T21:18:51;100497.30;;;4.69;97.57
51528;BME280;37612;51.768;21.590;2023-04-07T21:22:54;100498.73;;;4.68;97.76
51528;BME280;37612;51.768;21.590;2023-04-07T21:26:59;100501.96;;;4.64;97.56
51528;BME280;37612;51.768;21.590;2023-04-07T21:31:02;100503.27;;;4.63;97.73
51528;BME280;37612;51.768;21.590;2023-04-07T21:35:09;100505.09;;;4.65;97.54
51528;BME280;37612;51.768;21.590;2023-04-07T21:39:11;100502.39;;;4.64;97.53
51528;BME280;37612;51.768;21.590;2023-04-07T21:43:27;100504.91;;;4.60;97.39
51528;BME280;37612;51.768;21.590;2023-04-07T21:47:29;100510.14;;;4.59;97.28
51528;BME280;37612;51.768;21.590;2023-04-07T21:51:31;100510.05;;;4.62;97.35
51528;BME280;37612;51.768;21.590;2023-04-07T21:55:45;100515.63;;;4.63;97.47
51528;BME280;37612;51.768;21.590;2023-04-07T21:59:47;100516.92;;;4.61;97.52
51528;BME280;37612;51.768;21.590;2023-04-07T22:03:51;100517.55;;;4.59;97.71
51528;BME280;37612;51.768;21.590;2023-04-07T22:07:58;100516.50;;;4.59;97.48
51528;BME280;37612;51.768;21.590;2023-04-07T22:12:00;100519.61;;;4.63;97.33
51528;BME280;37612;51.768;21.590;2023-04-07T22:16:03;100523.61;;;4.65;97.34
51528;BME280;37612;51.768;21.590;2023-04-07T22:20:10;100525.05;;;4.65;97.46
51528;BME280;37612;51.768;21.590;2023-04-07T22:24:16;100530.67;;;4.61;97.40
51528;BME280;37612;51.768;21.590;2023-04-07T22:28:18;100527.00;;;4.61;97.46